Time;durP1;ratioP1;P1;durP2;ratioP2;P2;SDS_P1;SDS_P2;PMS_P1;PMS_P2;Temp;Humidity;BMP_temperature;BMP_pressure;BME280_temperature;BME280_humidity;BME280_pressure;Samples;Min_cycle;Max_cycle;Signal;HPM_P1;HPM_P2
2022/03/22 00:01:18;;;;;;;12.75;6.50;;;;;;;6.22;56.08;102498.13;1736727;81;21690;-69
2022/03/22 00:03:46;;;;;;;18.98;7.58;;;;;;;6.19;56.17;102509.61;1729738;80;21056;-69
2022/03/22 00:06:14;;;;;;;13.53;6.87;;;;;;;6.15;56.28;102497.69;1738298;81;21049;-69
2022/03/22 00:08:42;;;;;;;13.50;6.40;;;;;;;6.13;56.39;102503.19;1738409;80;21957;-68
2022/03/22 00:11:11;;;;;;;15.32;7.33;;;;;;;6.10;56.49;102501.71;1735998;80;21734;-69
2022/03/22 00:13:42;;;;;;;12.65;6.42;;;;;;;6.07;56.52;102500.73;1725773;80;21079;-70
2022/03/22 00:16:09;;;;;;;15.63;6.60;;;;;;;6.05;56.50;102493.45;1717899;82;21071;-69
2022/03/22 00:18:37;;;;;;;13.53;6.60;;;;;;;6.03;56.54;102498.63;1729810;80;21027;-68
2022/03/22 00:21:07;;;;;;;12.88;6.15;;;;;;;6.00;56.52;102498.98;1713438;81;21056;-69
2022/03/22 00:23:35;;;;;;;15.78;6.50;;;;;;;5.97;56.60;102496.19;1737369;80;21048;-69
2022/03/22 00:26:03;;;;;;;12.28;6.10;;;;;;;5.94;56.72;102499.70;1725372;80;21013;-69
2022/03/22 00:28:31;;;;;;;15.70;7.00;;;;;;;5.90;56.88;102499.70;1720040;81;21079;-69
2022/03/22 00:30:59;;;;;;;12.73;6.17;;;;;;;5.86;57.01;102496.08;1736711;81;21589;-69
2022/03/22 00:33:26;;;;;;;14.45;6.80;;;;;;;5.83;57.07;102495.11;1727077;80;21282;-70
2022/03/22 00:35:53;;;;;;;15.03;7.80;;;;;;;5.81;57.16;102490.98;1736730;80;21645;-70
2022/03/22 00:38:22;;;;;;;14.25;7.40;;;;;;;5.78;57.31;102489.50;1733481;80;21571;-69
2022/03/22 00:40:50;;;;;;;18.40;8.40;;;;;;;5.77;57.36;102487.04;1738323;81;21210;-69
2022/03/22 00:43:19;;;;;;;16.02;7.95;;;;;;;5.73;57.41;102488.41;1737490;80;21051;-69
2022/03/22 00:45:48;;;;;;;17.05;7.80;;;;;;;5.69;57.47;102487.09;1737975;82;21234;-69
2022/03/22 00:48:17;;;;;;;15.38;7.90;;;;;;;5.65;57.54;102484.78;1738273;80;22205;-69
2022/03/22 00:50:50;;;;;;;14.90;7.65;;;;;;;5.61;57.63;102482.67;1719056;82;21076;-68
2022/03/22 00:53:19;;;;;;;16.97;8.35;;;;;;;5.57;57.77;102481.39;1711186;82;21150;-68
2022/03/22 00:55:48;;;;;;;15.05;7.10;;;;;;;5.54;57.91;102477.77;1719889;82;21070;-68
2022/03/22 00:58:16;;;;;;;15.70;7.80;;;;;;;5.49;58.08;102476.12;1707097;84;21258;-68
2022/03/22 01:00:45;;;;;;;15.50;8.08;;;;;;;5.46;58.14;102479.12;1737279;81;21083;-69
2022/03/22 01:03:13;;;;;;;17.45;8.23;;;;;;;5.41;58.20;102481.81;1721105;81;21076;-69
2022/03/22 01:05:42;;;;;;;14.00;6.75;;;;;;;5.38;58.25;102485.31;1738087;81;21635;-69
2022/03/22 01:08:12;;;;;;;14.87;7.62;;;;;;;5.35;58.40;102485.66;1737510;82;21103;-69
2022/03/22 01:10:43;;;;;;;14.80;7.90;;;;;;;5.31;58.48;102489.16;1737990;81;21291;-70
2022/03/22 01:13:13;;;;;;;17.40;8.95;;;;;;;5.28;58.75;102486.86;1737969;81;21076;-69
2022/03/22 01:15:42;;;;;;;16.87;8.18;;;;;;;5.27;58.81;102485.22;1738376;81;21582;-69
2022/03/22 01:18:10;;;;;;;22.93;10.65;;;;;;;5.26;58.96;102484.88;1733526;81;21036;-69
2022/03/22 01:20:40;;;;;;;21.93;10.30;;;;;;;5.25;59.12;102488.53;1725131;81;21049;-70
2022/03/22 01:23:08;;;;;;;21.35;10.40;;;;;;;5.26;59.11;102484.88;1737599;81;21130;-70
2022/03/22 01:25:38;;;;;;;24.20;10.95;;;;;;;5.25;59.16;102481.91;1775432;80;21054;-69
2022/03/22 01:28:07;;;;;;;23.62;11.38;;;;;;;5.25;59.20;102491.17;1772356;79;21510;-69
2022/03/22 01:30:35;;;;;;;22.35;10.50;;;;;;;5.22;59.24;102492.03;1761922;79;21077;-69
2022/03/22 01:33:03;;;;;;;22.85;10.15;;;;;;;5.19;59.38;102491.87;1751583;79;21049;-69
2022/03/22 01:35:30;;;;;;;17.00;9.25;;;;;;;5.16;59.43;102490.89;1772192;79;21292;-68
2022/03/22 01:37:57;;;;;;;17.20;8.65;;;;;;;5.12;59.58;102490.41;1765830;79;21578;-68
2022/03/22 01:40:26;;;;;;;18.42;9.13;;;;;;;5.10;59.67;102487.61;1765458;79;20980;-68
2022/03/22 01:42:54;;;;;;;13.53;7.33;;;;;;;5.08;59.81;102483.00;1761795;80;21047;-69
2022/03/22 01:45:21;;;;;;;13.80;6.60;;;;;;;5.06;59.92;102484.98;1760320;79;21535;-68
2022/03/22 01:47:49;;;;;;;15.48;6.90;;;;;;;5.04;60.11;102492.30;1760197;79;21199;-69
2022/03/22 01:50:19;;;;;;;14.95;6.83;;;;;;;5.02;60.22;102488.98;1765997;79;21082;-68
2022/03/22 01:52:48;;;;;;;14.68;6.97;;;;;;;5.01;60.39;102491.31;1761786;79;21439;-68
2022/03/22 01:55:19;;;;;;;13.53;6.67;;;;;;;4.99;60.53;102488.81;1758074;80;21086;-69
2022/03/22 01:57:47;;;;;;;14.53;7.25;;;;;;;4.99;60.63;102486.17;1751410;80;21071;-69
2022/03/22 02:00:17;;;;;;;13.75;6.28;;;;;;;4.99;60.65;102495.94;1760583;79;21169;-71
2022/03/22 02:05:51;;;;;;;13.35;6.65;;;;;;;4.95;60.89;102487.52;1761538;79;21547;-69
2022/03/22 02:08:20;;;;;;;13.70;6.25;;;;;;;4.93;60.92;102492.16;1753208;79;21124;-68
2022/03/22 02:10:50;;;;;;;13.55;6.05;;;;;;;4.92;60.97;102492.66;1761449;79;25950;-68
2022/03/22 02:13:19;;;;;;;17.85;7.35;;;;;;;4.90;61.01;102493.81;1754798;80;21102;-69
2022/03/22 02:15:49;;;;;;;14.65;6.87;;;;;;;4.88;61.12;102504.59;1763367;79;21440;-70
2022/03/22 02:18:18;;;;;;;16.65;7.58;;;;;;;4.85;61.16;102504.93;1764942;79;21023;-69
2022/03/22 02:20:47;;;;;;;14.13;7.22;;;;;;;4.82;61.25;102503.12;1761536;79;21050;-70
2022/03/22 02:23:51;;;;;;;15.15;7.70;;;;;;;4.81;61.23;102506.78;1756559;79;21082;-68
2022/03/22 02:26:19;;;;;;;18.15;8.20;;;;;;;4.78;61.38;102505.30;1759883;79;21212;-69
2022/03/22 02:28:47;;;;;;;15.38;6.67;;;;;;;4.77;61.58;102504.98;1760258;79;21026;-70
2022/03/22 02:31:14;;;;;;;12.55;6.60;;;;;;;4.74;61.68;102503.99;1767051;79;21054;-69
2022/03/22 02:33:43;;;;;;;15.90;7.60;;;;;;;4.72;61.79;102503.33;1760966;80;21604;-69
2022/03/22 02:36:10;;;;;;;15.13;7.15;;;;;;;4.72;61.91;102505.97;1770748;79;20935;-69
2022/03/22 02:38:39;;;;;;;14.13;7.30;;;;;;;4.70;61.96;102499.54;1763846;80;21128;-69
2022/03/22 02:41:07;;;;;;;15.50;7.47;;;;;;;4.69;62.10;102504.98;1768193;79;21620;-69
2022/03/22 02:43:34;;;;;;;11.60;6.50;;;;;;;4.66;62.12;102503.50;1777542;80;21422;-70
2022/03/22 02:46:01;;;;;;;13.45;6.95;;;;;;;4.66;62.14;102505.33;1770973;79;21518;-70
2022/03/22 02:48:29;;;;;;;16.32;7.35;;;;;;;4.65;62.13;102514.27;1757794;79;21067;-69
2022/03/22 02:50:58;;;;;;;18.12;8.00;;;;;;;4.64;62.10;102516.56;1775196;79;21137;-69
2022/03/22 02:53:26;;;;;;;18.07;8.28;;;;;;;4.60;62.12;102516.58;1761240;80;21078;-70
2022/03/22 02:55:53;;;;;;;15.85;7.20;;;;;;;4.59;62.16;102517.59;1757938;80;21050;-69
2022/03/22 02:58:22;;;;;;;17.25;7.58;;;;;;;4.55;62.22;102509.66;1758491;80;21035;-71
2022/03/22 03:00:49;;;;;;;14.30;8.13;;;;;;;4.54;62.29;102509.31;1760192;80;21603;-71
2022/03/22 03:03:22;;;;;;;14.98;6.97;;;;;;;4.53;62.32;102510.31;1757338;80;21039;-72
2022/03/22 03:05:49;;;;;;;12.58;7.22;;;;;;;4.51;62.33;102510.97;1759028;80;21066;-70
2022/03/22 03:08:16;;;;;;;15.05;7.45;;;;;;;4.45;62.40;102509.34;1758795;80;20993;-70
2022/03/22 03:10:45;;;;;;;17.73;8.18;;;;;;;4.42;62.53;102505.71;1761031;79;21110;-70
2022/03/22 03:13:13;;;;;;;16.97;8.53;;;;;;;4.39;62.54;102507.37;1728584;81;21012;-70
2022/03/22 03:15:42;;;;;;;15.58;8.55;;;;;;;4.33;62.64;102512.00;1722012;81;21063;-69
2022/03/22 03:18:09;;;;;;;16.25;8.13;;;;;;;4.29;62.78;102510.69;1728348;81;21017;-69
2022/03/22 03:20:38;;;;;;;19.20;8.70;;;;;;;4.26;62.91;102511.02;1719843;81;21111;-69
2022/03/22 03:23:06;;;;;;;17.70;8.25;;;;;;;4.20;63.07;102514.33;1753830;79;22245;-68
2022/03/22 03:25:35;;;;;;;19.15;9.15;;;;;;;4.17;63.19;102521.27;1763452;79;21094;-69
2022/03/22 03:28:03;;;;;;;19.07;8.05;;;;;;;4.13;63.24;102518.13;1755902;80;21077;-68
2022/03/22 03:30:31;;;;;;;14.50;7.42;;;;;;;4.11;63.34;102521.94;1766023;79;21006;-68
2022/03/22 03:32:58;;;;;;;18.85;7.90;;;;;;;4.07;63.53;102526.73;1757338;79;21045;-67
2022/03/22 03:35:25;;;;;;;15.20;8.45;;;;;;;4.05;63.75;102529.20;1765327;79;21522;-68
2022/03/22 03:37:52;;;;;;;16.40;8.28;;;;;;;4.03;63.82;102535.17;1764071;79;21079;-68
2022/03/22 03:41:53;;;;;;;19.32;8.40;;;;;;;3.99;63.88;102532.84;1773974;79;21686;-69
2022/03/22 03:42:52;;;;;;;15.30;7.47;;;;;;;3.97;64.00;102540.11;1758054;79;21097;-67
2022/03/22 03:48:05;;;;;;;14.63;7.35;;;;;;;3.93;64.21;102543.26;1761091;79;21034;-68
2022/03/22 03:50:33;;;;;;;13.85;7.00;;;;;;;3.90;64.35;102544.41;1767313;79;21090;-67
2022/03/22 03:53:01;;;;;;;15.83;7.70;;;;;;;3.90;64.43;102545.73;1762149;79;22636;-68
2022/03/22 03:55:31;;;;;;;15.78;7.75;;;;;;;3.91;64.46;102547.88;1758884;79;21090;-68
2022/03/22 03:57:58;;;;;;;15.72;7.00;;;;;;;3.91;64.49;102546.55;1763456;79;21046;-69
2022/03/22 04:00:25;;;;;;;14.83;6.97;;;;;;;3.91;64.57;102546.05;1774130;79;21081;-69
2022/03/22 04:02:53;;;;;;;15.05;7.95;;;;;;;3.88;64.59;102537.16;1773835;79;21026;-68
2022/03/22 04:05:21;;;;;;;18.27;8.48;;;;;;;3.87;64.57;102545.23;1760182;79;21135;-68
2022/03/22 04:07:49;;;;;;;17.10;7.90;;;;;;;3.87;64.56;102549.20;1762253;79;21034;-68
2022/03/22 04:10:16;;;;;;;16.62;8.50;;;;;;;3.86;64.58;102555.48;1760217;79;21028;-68
2022/03/22 04:12:44;;;;;;;19.50;8.75;;;;;;;3.85;64.60;102563.06;1764221;79;21042;-68
2022/03/22 04:15:12;;;;;;;17.70;8.63;;;;;;;3.83;64.64;102566.38;1775241;79;21066;-69
2022/03/22 04:17:42;;;;;;;17.40;8.33;;;;;;;3.82;64.67;102561.59;1767263;79;21359;-68
2022/03/22 04:20:11;;;;;;;17.73;8.53;;;;;;;3.81;64.83;102562.56;1754613;80;21033;-68
2022/03/22 04:22:39;;;;;;;17.02;9.03;;;;;;;3.81;64.95;102567.84;1758298;79;21266;-68
2022/03/22 04:25:09;;;;;;;18.70;7.95;;;;;;;3.83;65.05;102569.02;1756263;79;21059;-68
2022/03/22 04:33:09;;;;;;;14.05;7.40;;;;;;;3.87;65.34;102569.84;1761462;80;21077;-67
2022/03/22 04:35:37;;;;;;;15.38;7.67;;;;;;;3.91;65.35;102574.31;1759776;80;21082;-69
2022/03/22 04:38:07;;;;;;;14.87;8.48;;;;;;;3.93;65.37;102575.80;1747398;80;21493;-67
2022/03/22 04:40:35;;;;;;;16.25;7.80;;;;;;;3.97;65.35;102581.09;1722402;82;21115;-67
2022/03/22 04:43:03;;;;;;;18.20;8.58;;;;;;;4.03;65.29;102579.62;1731245;82;21148;-68
2022/03/22 04:45:32;;;;;;;17.50;8.10;;;;;;;4.06;65.22;102580.62;1720197;82;21048;-67
2022/03/22 04:47:59;;;;;;;13.15;7.47;;;;;;;4.11;65.18;102585.40;1697872;83;21024;-68
2022/03/22 04:50:28;;;;;;;15.53;7.25;;;;;;;4.14;65.08;102579.78;1720916;82;21029;-68
2022/03/22 04:58:27;;;;;;;15.30;7.42;;;;;;;4.26;64.79;102588.23;1720978;82;21175;-68
2022/03/22 05:00:55;;;;;;;12.88;6.72;;;;;;;4.30;64.67;102589.05;1706710;82;21027;-68
2022/03/22 05:03:22;;;;;;;12.55;7.40;;;;;;;4.33;64.55;102590.05;1725428;80;21040;-68
2022/03/22 05:08:38;;;;;;;14.18;7.35;;;;;;;4.42;64.45;102589.55;1729174;81;21603;-67
2022/03/22 05:11:06;;;;;;;14.13;7.08;;;;;;;4.48;64.33;102595.52;1724960;81;21134;-67
2022/03/22 05:13:34;;;;;;;14.90;7.30;;;;;;;4.54;64.19;102592.67;1724761;80;21036;-69
2022/03/22 05:16:01;;;;;;;14.47;7.30;;;;;;;4.60;64.08;102599.45;1718870;82;21056;-67
2022/03/22 05:18:29;;;;;;;15.45;7.45;;;;;;;4.64;63.96;102595.97;1725990;80;21052;-67
2022/03/22 05:20:56;;;;;;;16.80;7.85;;;;;;;4.69;63.84;102598.95;1721643;80;21911;-68
2022/03/22 05:23:23;;;;;;;14.35;7.92;;;;;;;4.75;63.70;102602.26;1719952;81;21092;-68
2022/03/22 05:25:51;;;;;;;14.43;8.20;;;;;;;4.82;63.61;102603.23;1721353;81;21126;-68
2022/03/22 05:28:18;;;;;;;14.83;7.87;;;;;;;4.87;63.49;102604.89;1724069;80;21104;-68
2022/03/22 05:30:45;;;;;;;17.05;8.63;;;;;;;4.95;63.39;102602.72;1723439;80;21119;-68
2022/03/22 05:33:12;;;;;;;17.02;8.85;;;;;;;5.05;63.25;102609.14;1721883;80;22069;-69
2022/03/22 05:35:41;;;;;;;13.80;7.58;;;;;;;5.16;63.10;102606.13;1720993;80;21038;-68
2022/03/22 05:38:08;;;;;;;16.93;8.43;;;;;;;5.25;62.93;102615.70;1724856;81;21108;-68
2022/03/22 05:40:35;;;;;;;16.45;8.18;;;;;;;5.32;62.70;102624.61;1722394;81;21202;-69
2022/03/22 05:43:03;;;;;;;15.60;8.43;;;;;;;5.38;62.52;102625.77;1724198;80;21099;-67
2022/03/22 05:45:31;;;;;;;15.58;7.87;;;;;;;5.45;62.36;102617.45;1723611;80;21846;-70
2022/03/22 05:48:00;;;;;;;17.45;8.48;;;;;;;5.52;62.14;102617.08;1729315;81;21125;-69
2022/03/22 05:50:28;;;;;;;15.45;8.00;;;;;;;5.58;62.02;102619.05;1726803;81;21107;-69
2022/03/22 05:52:55;;;;;;;15.28;8.40;;;;;;;5.68;61.84;102627.28;1728124;80;21123;-67
2022/03/22 05:55:23;;;;;;;15.68;7.83;;;;;;;5.76;61.52;102625.44;1729187;80;21080;-68
2022/03/22 05:57:51;;;;;;;16.30;7.35;;;;;;;5.86;61.24;102632.66;1721993;80;21072;-69
2022/03/22 06:00:19;;;;;;;16.40;9.13;;;;;;;5.97;60.91;102629.31;1730602;81;21083;-69
2022/03/22 06:02:46;;;;;;;15.35;7.62;;;;;;;6.07;60.55;102628.08;1735321;80;21520;-68
2022/03/22 06:05:14;;;;;;;15.93;8.28;;;;;;;6.19;60.43;102625.86;1727502;82;21072;-69
2022/03/22 06:07:43;;;;;;;16.95;8.75;;;;;;;6.30;60.14;102633.39;1720534;80;22210;-68
2022/03/22 06:10:14;;;;;;;12.98;7.70;;;;;;;6.42;59.88;102638.30;1721891;80;22030;-68
2022/03/22 06:12:51;;;;;;;14.90;8.05;;;;;;;6.53;59.62;102628.58;1721312;80;21038;-68
2022/03/22 06:15:31;;;;;;;15.50;8.65;;;;;;;6.65;59.31;102631.13;1760391;80;21108;-69
2022/03/22 06:18:02;;;;;;;18.85;8.55;;;;;;;6.78;59.04;102635.32;1761150;79;21086;-69
2022/03/22 06:20:36;;;;;;;18.45;9.43;;;;;;;6.90;58.52;102638.34;1765112;79;21081;-69
2022/03/22 06:23:06;;;;;;;16.05;8.83;;;;;;;7.01;58.19;102634.44;1760696;79;21759;-69
2022/03/22 06:25:34;;;;;;;15.48;8.03;;;;;;;7.13;57.82;102643.59;1759009;79;21480;-70
2022/03/22 06:28:03;;;;;;;15.80;8.55;;;;;;;7.25;57.39;102647.45;1765550;79;21450;-69
2022/03/22 06:30:31;;;;;;;18.12;9.60;;;;;;;7.36;57.21;102645.34;1758589;79;21557;-68
2022/03/22 06:33:03;;;;;;;16.67;8.68;;;;;;;7.47;56.98;102644.89;1761022;79;21018;-68
2022/03/22 06:35:33;;;;;;;17.52;9.48;;;;;;;7.61;56.79;102647.20;1767168;79;21205;-68
2022/03/22 06:38:01;;;;;;;16.95;8.63;;;;;;;7.77;56.47;102649.66;1758488;80;21042;-68
2022/03/22 06:40:33;;;;;;;14.98;8.03;;;;;;;7.90;56.03;102654.30;1767076;79;21013;-68
2022/03/22 06:43:02;;;;;;;15.08;8.58;;;;;;;7.95;55.10;102655.38;1748455;79;21026;-69
2022/03/22 06:45:29;;;;;;;16.77;9.85;;;;;;;7.94;54.60;102652.91;1776279;79;21004;-68
2022/03/22 06:47:57;;;;;;;18.45;9.40;;;;;;;7.91;54.27;102655.44;1764518;79;21151;-67
2022/03/22 06:50:24;;;;;;;16.77;9.25;;;;;;;7.94;54.38;102655.06;1756868;79;21082;-70
2022/03/22 06:52:51;;;;;;;20.32;9.55;;;;;;;8.04;54.32;102656.59;1756616;79;21085;-68
2022/03/22 06:55:22;;;;;;;18.65;9.70;;;;;;;8.19;54.16;102656.02;1761489;79;21081;-69
2022/03/22 06:57:47;;;;;;;16.90;9.38;;;;;;;8.29;53.36;102651.72;1763221;79;21490;-69
2022/03/22 07:00:17;;;;;;;18.42;9.25;;;;;;;8.37;53.49;102652.94;1766048;80;21570;-68
2022/03/22 07:02:48;;;;;;;14.25;8.13;;;;;;;8.52;53.38;102655.03;1769934;79;21047;-68
2022/03/22 07:05:15;;;;;;;19.02;10.35;;;;;;;8.69;53.08;102655.09;1761701;79;21041;-69
2022/03/22 07:07:43;;;;;;;18.60;9.38;;;;;;;8.86;52.63;102652.15;1757667;79;21031;-69
2022/03/22 07:10:13;;;;;;;15.72;9.23;;;;;;;9.00;52.21;102648.55;1771925;79;21054;-69
2022/03/22 07:13:04;;;;;;;13.95;7.83;;;;;;;9.15;51.72;102657.27;1773595;80;21497;-68
2022/03/22 07:15:36;;;;;;;18.98;9.15;;;;;;;9.27;50.82;102654.04;1773284;80;21541;-69
2022/03/22 07:18:08;;;;;;;14.95;8.40;;;;;;;9.33;50.53;102653.26;1773652;79;21030;-68
2022/03/22 07:20:36;;;;;;;15.40;8.25;;;;;;;9.47;50.46;102657.63;1762208;79;21050;-69
2022/03/22 07:23:04;;;;;;;14.47;8.35;;;;;;;9.59;49.84;102655.23;1757002;80;21081;-68
2022/03/22 07:25:33;;;;;;;17.05;8.60;;;;;;;9.67;49.31;102655.05;1760073;80;21090;-68
2022/03/22 07:28:00;;;;;;;14.78;8.20;;;;;;;9.73;48.96;102657.44;1760886;80;21676;-68
2022/03/22 07:30:29;;;;;;;14.20;8.05;;;;;;;9.81;48.80;102655.42;1758781;80;21454;-69
2022/03/22 07:32:57;;;;;;;15.65;8.23;;;;;;;9.89;48.70;102653.59;1754728;79;21994;-68
2022/03/22 07:35:27;;;;;;;13.78;8.28;;;;;;;9.97;48.45;102651.58;1759225;80;21047;-69
2022/03/22 07:37:55;;;;;;;12.25;7.17;;;;;;;10.13;48.13;102645.53;1753780;80;21247;-68
2022/03/22 07:40:22;;;;;;;15.00;8.40;;;;;;;10.26;47.64;102644.25;1763688;80;21081;-68
2022/03/22 07:42:51;;;;;;;17.00;8.83;;;;;;;10.36;47.38;102646.00;1755283;80;20979;-69
2022/03/22 07:45:23;;;;;;;13.48;7.12;;;;;;;10.49;47.20;102655.37;1758869;80;21039;-68
2022/03/22 07:47:50;;;;;;;15.98;8.05;;;;;;;10.61;46.87;102642.74;1772661;80;21195;-68
2022/03/22 07:53:06;;;;;;;13.75;8.00;;;;;;;10.85;46.14;102647.45;1763328;80;21498;-68
2022/03/22 07:55:40;;;;;;;14.45;7.10;;;;;;;11.03;45.77;102652.17;1756847;80;21062;-68
2022/03/22 07:58:08;;;;;;;13.50;7.53;;;;;;;11.17;45.06;102655.11;1754104;80;21052;-67
2022/03/22 08:00:38;;;;;;;15.35;7.85;;;;;;;11.28;44.59;102640.27;1756232;80;21134;-69
2022/03/22 08:03:09;;;;;;;13.80;7.33;;;;;;;11.35;44.13;102646.44;1756637;80;21197;-68
2022/03/22 08:05:36;;;;;;;16.07;7.97;;;;;;;11.44;44.04;102649.68;1761204;80;21063;-68
2022/03/22 08:08:04;;;;;;;10.88;6.75;;;;;;;11.54;43.87;102642.55;1767294;80;21037;-69
2022/03/22 08:10:32;;;;;;;17.65;7.12;;;;;;;11.68;43.60;102649.48;1760652;80;21125;-69
2022/03/22 08:13:00;;;;;;;17.57;7.53;;;;;;;11.79;42.82;102650.68;1762319;80;21066;-68
2022/03/22 08:15:27;;;;;;;14.63;7.17;;;;;;;11.83;42.32;102650.55;1764367;80;21756;-69
2022/03/22 08:17:56;;;;;;;13.80;6.95;;;;;;;11.88;42.49;102642.22;1755633;80;21119;-70
2022/03/22 08:20:27;;;;;;;13.72;7.05;;;;;;;12.02;42.28;102639.47;1777012;79;21022;-68
2022/03/22 08:22:59;;;;;;;14.13;7.33;;;;;;;12.13;41.51;102642.78;1764585;80;21517;-68
2022/03/22 08:25:43;;;;;;;14.47;6.87;;;;;;;12.14;41.40;102643.08;1760668;80;21038;-69
2022/03/22 08:28:12;;;;;;;12.45;6.75;;;;;;;12.21;41.14;102641.20;1767918;80;22122;-69
2022/03/22 08:30:39;;;;;;;13.80;6.58;;;;;;;12.27;40.84;102639.48;1754342;80;21015;-69
2022/03/22 08:33:11;;;;;;;12.93;6.85;;;;;;;12.34;40.90;102642.44;1763960;79;21050;-68
2022/03/22 08:35:48;;;;;;;12.18;6.47;;;;;;;12.47;40.14;102644.70;1769577;79;21040;-68
2022/03/22 08:38:16;;;;;;;12.53;7.25;;;;;;;12.52;40.12;102633.63;1762342;80;21105;-68
2022/03/22 08:40:43;;;;;;;12.23;6.62;;;;;;;12.54;40.08;102639.61;1755620;79;21843;-69
2022/03/22 08:43:10;;;;;;;12.18;6.62;;;;;;;12.61;40.16;102639.02;1758650;80;20981;-70
2022/03/22 08:45:39;;;;;;;14.10;6.85;;;;;;;12.77;40.21;102638.17;1755090;80;21727;-68
2022/03/22 08:48:10;;;;;;;13.98;6.80;;;;;;;12.95;39.77;102633.35;1755721;80;21038;-68
2022/03/22 08:50:42;;;;;;;11.18;5.85;;;;;;;13.12;39.47;102635.74;1761666;80;21298;-68
2022/03/22 08:53:10;;;;;;;14.75;7.08;;;;;;;13.22;38.72;102627.98;1762458;80;21198;-69
2022/03/22 08:55:37;;;;;;;13.90;6.55;;;;;;;13.29;38.40;102630.13;1757589;80;20971;-68
2022/03/22 08:58:06;;;;;;;12.50;6.40;;;;;;;13.33;38.25;102627.81;1767490;79;21022;-68
2022/03/22 09:00:33;;;;;;;12.98;6.28;;;;;;;13.35;38.00;102627.05;1764173;79;21090;-69
2022/03/22 09:03:03;;;;;;;13.22;6.33;;;;;;;13.40;37.89;102623.19;1762236;79;21051;-67
2022/03/22 09:08:06;;;;;;;11.30;6.23;;;;;;;13.64;37.60;102613.37;1734512;79;21126;-69
2022/03/22 09:10:36;;;;;;;13.30;6.67;;;;;;;13.77;37.12;102621.24;1762084;79;42341;-68
2022/03/22 09:13:05;;;;;;;14.23;6.60;;;;;;;13.79;36.65;102620.50;1762614;79;21775;-69
2022/03/22 09:15:39;;;;;;;13.60;7.07;;;;;;;13.82;36.69;102613.87;1764944;79;21335;-68
2022/03/22 09:18:16;;;;;;;15.45;6.55;;;;;;;13.87;36.48;102618.02;1761959;79;21455;-68
2022/03/22 09:20:46;;;;;;;12.27;6.70;;;;;;;13.97;36.49;102612.91;1760769;79;21052;-68
2022/03/22 09:23:17;;;;;;;13.73;6.23;;;;;;;14.12;36.55;102607.11;1759410;80;21306;-68
2022/03/22 09:25:47;;;;;;;11.10;5.97;;;;;;;14.31;35.93;102606.48;1763518;80;21140;-68
2022/03/22 09:28:14;;;;;;;11.37;6.17;;;;;;;14.43;35.86;102601.95;1761526;80;21266;-68
2022/03/22 09:30:43;;;;;;;11.27;6.40;;;;;;;14.51;35.63;102586.86;1756284;80;21678;-68
2022/03/22 09:33:12;;;;;;;11.23;5.73;;;;;;;14.62;35.38;102591.12;1763211;79;21241;-68
2022/03/22 09:35:39;;;;;;;12.27;5.83;;;;;;;14.71;34.89;102593.23;1760909;80;21314;-68
2022/03/22 09:38:08;;;;;;;10.23;6.07;;;;;;;14.71;34.71;102599.14;1761761;80;21277;-68
2022/03/22 09:40:36;;;;;;;11.27;6.70;;;;;;;14.70;34.55;102596.95;1760909;80;21295;-69
2022/03/22 09:43:07;;;;;;;14.50;6.33;;;;;;;14.59;34.16;102589.72;1771918;80;21379;-68
2022/03/22 09:45:35;;;;;;;11.83;6.30;;;;;;;14.46;34.30;102585.34;1747800;80;21768;-67
2022/03/22 09:48:05;;;;;;;12.57;6.70;;;;;;;14.38;34.39;102585.71;1774996;80;21175;-70
2022/03/22 09:53:22;;;;;;;12.13;5.63;;;;;;;14.42;34.57;102583.38;1766534;80;21260;-68
2022/03/22 09:55:50;;;;;;;12.43;6.17;;;;;;;14.55;34.58;102577.80;1767152;80;21413;-69
2022/03/22 09:58:17;;;;;;;13.37;6.43;;;;;;;14.74;34.60;102573.08;1764947;80;21387;-69
2022/03/22 10:00:47;;;;;;;11.43;6.20;;;;;;;14.95;34.74;102571.14;1762369;80;21268;-69
2022/03/22 10:03:20;;;;;;;11.70;6.63;;;;;;;15.15;33.96;102567.23;1755557;80;21265;-69
2022/03/22 10:06:02;;;;;;;11.07;6.63;;;;;;;15.25;33.54;102566.91;1760784;80;21357;-68
2022/03/22 10:08:29;;;;;;;11.53;6.30;;;;;;;15.25;33.51;102568.25;1757434;80;21494;-69
2022/03/22 10:10:58;;;;;;;13.73;6.97;;;;;;;15.30;33.59;102564.86;1766523;80;21516;-69
2022/03/22 10:13:28;;;;;;;12.03;6.43;;;;;;;15.39;33.41;102561.23;1773573;80;21355;-68
2022/03/22 10:16:05;;;;;;;14.27;6.53;;;;;;;15.46;32.91;102551.13;1775002;80;21368;-68
2022/03/22 10:18:37;;;;;;;11.80;6.20;;;;;;;15.49;33.06;102554.16;1758300;80;21316;-71
2022/03/22 10:21:05;;;;;;;13.33;6.70;;;;;;;15.58;32.59;102551.91;1755909;80;21290;-67
2022/03/22 10:23:33;;;;;;;13.70;5.77;;;;;;;15.65;32.76;102542.33;1760672;80;21333;-68
2022/03/22 10:26:07;;;;;;;13.73;6.63;;;;;;;15.75;32.41;102541.19;1758107;80;21209;-68
2022/03/22 10:28:35;;;;;;;11.77;5.70;;;;;;;15.86;32.28;102534.93;1757168;80;21272;-69
2022/03/22 10:31:03;;;;;;;12.13;5.70;;;;;;;16.00;32.09;102538.11;1756401;80;21783;-71
2022/03/22 10:33:30;;;;;;;11.90;6.13;;;;;;;16.11;31.30;102533.16;1764272;80;21174;-69
2022/03/22 10:35:59;;;;;;;12.87;5.27;;;;;;;16.27;30.97;102528.02;1771622;80;21297;-68
2022/03/22 10:38:26;;;;;;;9.27;4.83;;;;;;;16.44;30.95;102523.94;1765010;80;21403;-69
2022/03/22 10:40:53;;;;;;;11.90;5.87;;;;;;;16.56;30.10;102522.77;1757180;80;21329;-68
2022/03/22 10:43:23;;;;;;;11.07;5.90;;;;;;;16.52;29.92;102521.64;1761200;80;21387;-68
2022/03/22 10:46:04;;;;;;;9.47;4.30;;;;;;;16.52;30.05;102514.90;1759564;80;21503;-69
2022/03/22 10:48:31;;;;;;;6.73;3.00;;;;;;;16.65;29.58;102513.72;1754405;80;21277;-68
2022/03/22 10:51:01;;;;;;;5.90;2.63;;;;;;;16.81;25.50;102497.20;1756317;80;21435;-68
2022/03/22 10:53:31;;;;;;;6.60;2.70;;;;;;;16.81;25.50;102497.20;1764385;80;21429;-67
2022/03/22 10:55:59;;;;;;;7.33;2.87;;;;;;;16.81;25.39;102503.95;1765721;80;21585;-68
2022/03/22 10:58:28;;;;;;;7.53;2.87;;;;;;;16.85;25.44;102497.81;1779001;80;21415;-69
2022/03/22 11:01:03;;;;;;;7.47;2.97;;;;;;;17.00;25.57;102492.30;1777752;80;21482;-69
2022/03/22 11:03:33;;;;;;;5.77;2.60;;;;;;;17.00;25.57;102492.30;1766089;80;21533;-67
2022/03/22 11:06:04;;;;;;;5.27;2.77;;;;;;;17.02;23.87;102502.33;1759317;80;21510;-68
2022/03/22 11:08:32;;;;;;;5.50;2.60;;;;;;;16.95;23.96;102490.91;1754427;80;21751;-69
2022/03/22 11:10:59;;;;;;;7.90;2.93;;;;;;;16.90;24.35;102484.90;1759167;80;21850;-68
2022/03/22 11:13:28;;;;;;;6.00;3.00;;;;;;;17.00;24.39;102487.71;1764927;79;22199;-69
2022/03/22 11:15:56;;;;;;;7.17;3.17;;;;;;;17.02;24.87;102477.48;1768528;79;21713;-69
2022/03/22 11:18:27;;;;;;;8.23;3.33;;;;;;;17.02;24.87;102477.48;1765196;79;21633;-68
2022/03/22 11:21:00;;;;;;;7.10;2.90;;;;;;;17.04;24.64;102481.27;1758666;80;22246;-69
2022/03/22 11:23:32;;;;;;;6.50;2.90;;;;;;;17.04;24.64;102481.27;1775440;79;21511;-69
2022/03/22 11:26:15;;;;;;;5.47;2.90;;;;;;;17.08;23.63;102472.97;1773040;80;21708;-68
2022/03/22 11:28:43;;;;;;;7.33;2.80;;;;;;;17.08;23.63;102472.97;1761338;79;21674;-68
2022/03/22 11:31:10;;;;;;;6.30;2.67;;;;;;;17.16;24.14;102469.80;1768487;80;21712;-69
2022/03/22 11:36:30;;;;;;;7.33;3.27;;;;;;;17.45;23.90;102458.20;1764468;80;21565;-68
2022/03/22 11:38:59;;;;;;;6.37;3.10;;;;;;;17.45;23.90;102458.20;1734736;80;28593;-69
2022/03/22 11:44:39;;;;;;;7.33;3.33;;;;;;;17.47;23.92;102453.87;1739717;80;21737;-68
2022/03/22 11:47:16;;;;;;;7.23;3.27;;;;;;;17.45;23.45;102450.09;1764948;80;23029;-68
2022/03/22 11:50:01;;;;;;;7.13;3.30;;;;;;;17.44;23.56;102442.23;1765654;81;22499;-68
2022/03/22 11:52:41;;;;;;;7.00;3.60;;;;;;;17.44;23.56;102442.23;1772484;80;21846;-68
2022/03/22 11:55:16;;;;;;;8.67;3.83;;;;;;;17.50;23.35;102451.47;1759554;80;22098;-68
2022/03/22 11:57:53;;;;;;;7.07;3.50;;;;;;;17.55;23.71;102444.77;1755913;80;21763;-69
2022/03/22 12:00:45;;;;;;;7.87;3.67;;;;;;;17.64;23.43;102444.31;1759268;80;21705;-68
2022/03/22 12:03:15;;;;;;;7.10;3.80;;;;;;;17.66;23.37;102441.61;1751194;79;21689;-69
2022/03/22 12:05:42;;;;;;;7.47;4.70;;;;;;;17.59;23.31;102436.96;1764925;79;21137;-68